sensor_id;sensor_type;location;lat;lon;timestamp;P1;durP1;ratioP1;P2;durP2;ratioP2
8359;SDS011;4217;48.762;11.428;2022-09-14T00:02:58;9.60;;;9.00;;
8359;SDS011;4217;48.762;11.428;2022-09-14T00:12:59;9.90;;;9.30;;
8359;SDS011;4217;48.762;11.428;2022-09-14T00:23:01;10.00;;;9.20;;
8359;SDS011;4217;48.762;11.428;2022-09-14T00:33:03;9.80;;;9.07;;
8359;SDS011;4217;48.762;11.428;2022-09-14T00:43:07;8.33;;;7.83;;
8359;SDS011;4217;48.762;11.428;2022-09-14T00:53:15;9.93;;;9.07;;
8359;SDS011;4217;48.762;11.428;2022-09-14T01:03:17;9.03;;;8.53;;
8359;SDS011;4217;48.762;11.428;2022-09-14T01:23:54;9.57;;;8.77;;
8359;SDS011;4217;48.762;11.428;2022-09-14T01:34:04;9.87;;;9.07;;
8359;SDS011;4217;48.762;11.428;2022-09-14T01:44:17;9.77;;;8.70;;
8359;SDS011;4217;48.762;11.428;2022-09-14T01:54:30;9.37;;;8.77;;
8359;SDS011;4217;48.762;11.428;2022-09-14T02:04:47;9.13;;;8.60;;
8359;SDS011;4217;48.762;11.428;2022-09-14T02:14:50;11.47;;;10.60;;
8359;SDS011;4217;48.762;11.428;2022-09-14T02:24:54;10.70;;;9.90;;
8359;SDS011;4217;48.762;11.428;2022-09-14T02:45:23;10.07;;;9.47;;
8359;SDS011;4217;48.762;11.428;2022-09-14T02:55:51;10.23;;;9.43;;
8359;SDS011;4217;48.762;11.428;2022-09-14T03:06:00;10.53;;;9.93;;
8359;SDS011;4217;48.762;11.428;2022-09-14T03:16:05;11.30;;;10.50;;
8359;SDS011;4217;48.762;11.428;2022-09-14T03:26:11;11.80;;;10.80;;
8359;SDS011;4217;48.762;11.428;2022-09-14T03:36:16;19.87;;;18.67;;
8359;SDS011;4217;48.762;11.428;2022-09-14T03:46:21;23.43;;;22.13;;
8359;SDS011;4217;48.762;11.428;2022-09-14T03:56:25;23.27;;;21.97;;
8359;SDS011;4217;48.762;11.428;2022-09-14T04:06:28;19.37;;;18.37;;
8359;SDS011;4217;48.762;11.428;2022-09-14T04:16:30;27.47;;;25.50;;
8359;SDS011;4217;48.762;11.428;2022-09-14T04:26:32;24.33;;;22.90;;
8359;SDS011;4217;48.762;11.428;2022-09-14T04:36:34;26.00;;;24.30;;
8359;SDS011;4217;48.762;11.428;2022-09-14T04:46:35;24.77;;;23.37;;
8359;SDS011;4217;48.762;11.428;2022-09-14T04:56:46;26.23;;;24.63;;
8359;SDS011;4217;48.762;11.428;2022-09-14T05:06:48;23.73;;;22.23;;
8359;SDS011;4217;48.762;11.428;2022-09-14T05:16:51;21.50;;;20.10;;
8359;SDS011;4217;48.762;11.428;2022-09-14T05:26:52;26.60;;;24.90;;
8359;SDS011;4217;48.762;11.428;2022-09-14T05:37:00;21.90;;;20.40;;
8359;SDS011;4217;48.762;11.428;2022-09-14T05:47:01;21.57;;;20.37;;
8359;SDS011;4217;48.762;11.428;2022-09-14T05:57:03;29.00;;;27.60;;
8359;SDS011;4217;48.762;11.428;2022-09-14T06:07:05;26.67;;;25.17;;
8359;SDS011;4217;48.762;11.428;2022-09-14T06:17:19;25.60;;;24.30;;
8359;SDS011;4217;48.762;11.428;2022-09-14T06:27:20;24.23;;;22.83;;
8359;SDS011;4217;48.762;11.428;2022-09-14T06:37:22;25.30;;;23.90;;
8359;SDS011;4217;48.762;11.428;2022-09-14T06:47:23;22.47;;;21.37;;
8359;SDS011;4217;48.762;11.428;2022-09-14T06:57:25;20.70;;;19.60;;
8359;SDS011;4217;48.762;11.428;2022-09-14T07:07:26;15.67;;;14.87;;
8359;SDS011;4217;48.762;11.428;2022-09-14T07:17:28;18.43;;;17.33;;
8359;SDS011;4217;48.762;11.428;2022-09-14T07:27:29;14.47;;;13.67;;
8359;SDS011;4217;48.762;11.428;2022-09-14T07:37:31;13.37;;;12.67;;
8359;SDS011;4217;48.762;11.428;2022-09-14T07:47:32;9.20;;;8.60;;
8359;SDS011;4217;48.762;11.428;2022-09-14T07:57:34;12.93;;;12.23;;
8359;SDS011;4217;48.762;11.428;2022-09-14T08:07:55;6.25;;;5.65;;
8359;SDS011;4217;48.762;11.428;2022-09-14T08:17:57;6.10;;;5.70;;
8359;SDS011;4217;48.762;11.428;2022-09-14T08:27:58;4.95;;;4.65;;
8359;SDS011;4217;48.762;11.428;2022-09-14T08:37:59;4.78;;;4.38;;
8359;SDS011;4217;48.762;11.428;2022-09-14T08:48:01;4.70;;;4.35;;
8359;SDS011;4217;48.762;11.428;2022-09-14T09:08:27;4.90;;;4.60;;
8359;SDS011;4217;48.762;11.428;2022-09-14T09:18:48;3.92;;;3.63;;
8359;SDS011;4217;48.762;11.428;2022-09-14T09:28:56;4.90;;;4.50;;
8359;SDS011;4217;48.762;11.428;2022-09-14T09:38:59;2.65;;;2.40;;
8359;SDS011;4217;48.762;11.428;2022-09-14T09:49:16;2.05;;;1.88;;
8359;SDS011;4217;48.762;11.428;2022-09-14T09:59:38;3.10;;;2.22;;
8359;SDS011;4217;48.762;11.428;2022-09-14T10:09:42;2.90;;;2.70;;
8359;SDS011;4217;48.762;11.428;2022-09-14T10:19:51;2.50;;;2.30;;
8359;SDS011;4217;48.762;11.428;2022-09-14T10:29:54;2.83;;;2.38;;
8359;SDS011;4217;48.762;11.428;2022-09-14T10:50:21;1.50;;;1.40;;
8359;SDS011;4217;48.762;11.428;2022-09-14T11:00:29;2.20;;;1.90;;
8359;SDS011;4217;48.762;11.428;2022-09-14T11:20:44;2.95;;;2.17;;
8359;SDS011;4217;48.762;11.428;2022-09-14T11:42:25;2.78;;;2.58;;
8359;SDS011;4217;48.762;11.428;2022-09-14T11:52:37;3.00;;;2.63;;
8359;SDS011;4217;48.762;11.428;2022-09-14T12:02:43;2.70;;;2.50;;
8359;SDS011;4217;48.762;11.428;2022-09-14T12:12:53;2.70;;;2.50;;
8359;SDS011;4217;48.762;11.428;2022-09-14T12:53:36;2.80;;;2.60;;
8359;SDS011;4217;48.762;11.428;2022-09-14T13:03:49;3.30;;;2.70;;
8359;SDS011;4217;48.762;11.428;2022-09-14T13:13:54;3.95;;;2.67;;
8359;SDS011;4217;48.762;11.428;2022-09-14T13:23:57;3.42;;;3.08;;
8359;SDS011;4217;48.762;11.428;2022-09-14T13:33:58;3.65;;;2.88;;
8359;SDS011;4217;48.762;11.428;2022-09-14T13:44:01;2.80;;;2.60;;
8359;SDS011;4217;48.762;11.428;2022-09-14T14:04:46;3.00;;;2.47;;
8359;SDS011;4217;48.762;11.428;2022-09-14T14:25:19;8.30;;;7.83;;
8359;SDS011;4217;48.762;11.428;2022-09-14T14:35:30;9.83;;;9.27;;
8359;SDS011;4217;48.762;11.428;2022-09-14T14:45:32;4.67;;;3.53;;
8359;SDS011;4217;48.762;11.428;2022-09-14T14:55:36;12.43;;;11.73;;
8359;SDS011;4217;48.762;11.428;2022-09-14T15:05:41;8.13;;;7.63;;
8359;SDS011;4217;48.762;11.428;2022-09-14T15:15:44;7.00;;;6.60;;
8359;SDS011;4217;48.762;11.428;2022-09-14T15:25:51;8.20;;;7.80;;
8359;SDS011;4217;48.762;11.428;2022-09-14T15:35:54;6.40;;;5.90;;
8359;SDS011;4217;48.762;11.428;2022-09-14T15:46:01;5.67;;;5.37;;
8359;SDS011;4217;48.762;11.428;2022-09-14T15:56:14;5.57;;;5.33;;
8359;SDS011;4217;48.762;11.428;2022-09-14T16:06:17;5.20;;;4.80;;
8359;SDS011;4217;48.762;11.428;2022-09-14T16:16:19;5.83;;;5.43;;
8359;SDS011;4217;48.762;11.428;2022-09-14T16:26:22;6.47;;;6.07;;
8359;SDS011;4217;48.762;11.428;2022-09-14T16:36:29;4.03;;;3.83;;
8359;SDS011;4217;48.762;11.428;2022-09-14T16:46:33;5.77;;;5.47;;
8359;SDS011;4217;48.762;11.428;2022-09-14T16:56:36;7.87;;;7.37;;
8359;SDS011;4217;48.762;11.428;2022-09-14T17:06:42;6.23;;;5.93;;
8359;SDS011;4217;48.762;11.428;2022-09-14T17:16:46;6.37;;;6.07;;
8359;SDS011;4217;48.762;11.428;2022-09-14T17:26:48;6.93;;;6.60;;
8359;SDS011;4217;48.762;11.428;2022-09-14T17:36:51;6.20;;;5.80;;
8359;SDS011;4217;48.762;11.428;2022-09-14T17:46:54;8.07;;;7.57;;
8359;SDS011;4217;48.762;11.428;2022-09-14T17:56:56;8.10;;;7.70;;
8359;SDS011;4217;48.762;11.428;2022-09-14T18:06:57;7.70;;;7.20;;
8359;SDS011;4217;48.762;11.428;2022-09-14T18:16:59;6.50;;;6.20;;
8359;SDS011;4217;48.762;11.428;2022-09-14T18:27:02;7.43;;;7.13;;
8359;SDS011;4217;48.762;11.428;2022-09-14T18:37:04;6.27;;;5.87;;
8359;SDS011;4217;48.762;11.428;2022-09-14T18:47:06;5.73;;;5.43;;
8359;SDS011;4217;48.762;11.428;2022-09-14T18:57:07;5.63;;;5.43;;
8359;SDS011;4217;48.762;11.428;2022-09-14T19:07:09;6.80;;;6.50;;
8359;SDS011;4217;48.762;11.428;2022-09-14T19:17:11;7.23;;;6.93;;
8359;SDS011;4217;48.762;11.428;2022-09-14T19:27:13;7.60;;;7.20;;
8359;SDS011;4217;48.762;11.428;2022-09-14T19:37:14;7.70;;;7.30;;
8359;SDS011;4217;48.762;11.428;2022-09-14T19:47:16;7.17;;;6.57;;
8359;SDS011;4217;48.762;11.428;2022-09-14T19:57:18;7.20;;;6.80;;
8359;SDS011;4217;48.762;11.428;2022-09-14T20:07:19;6.90;;;6.60;;
8359;SDS011;4217;48.762;11.428;2022-09-14T20:17:21;9.07;;;8.67;;
8359;SDS011;4217;48.762;11.428;2022-09-14T20:27:23;6.83;;;6.63;;
8359;SDS011;4217;48.762;11.428;2022-09-14T20:37:24;9.60;;;9.27;;
8359;SDS011;4217;48.762;11.428;2022-09-14T20:47:28;2.20;;;2.10;;
8359;SDS011;4217;48.762;11.428;2022-09-14T20:57:30;2.17;;;1.90;;
8359;SDS011;4217;48.762;11.428;2022-09-14T21:07:32;2.03;;;1.90;;
8359;SDS011;4217;48.762;11.428;2022-09-14T21:17:34;2.57;;;2.37;;
8359;SDS011;4217;48.762;11.428;2022-09-14T21:27:36;2.50;;;2.30;;
8359;SDS011;4217;48.762;11.428;2022-09-14T21:37:38;2.37;;;2.27;;
8359;SDS011;4217;48.762;11.428;2022-09-14T21:47:40;2.53;;;2.33;;
8359;SDS011;4217;48.762;11.428;2022-09-14T21:57:42;2.63;;;2.33;;
8359;SDS011;4217;48.762;11.428;2022-09-14T22:07:43;2.10;;;2.00;;
8359;SDS011;4217;48.762;11.428;2022-09-14T22:17:46;2.60;;;2.40;;
8359;SDS011;4217;48.762;11.428;2022-09-14T22:27:49;2.77;;;2.10;;
8359;SDS011;4217;48.762;11.428;2022-09-14T22:37:51;2.47;;;2.20;;
8359;SDS011;4217;48.762;11.428;2022-09-14T22:47:53;1.93;;;1.73;;
8359;SDS011;4217;48.762;11.428;2022-09-14T22:57:54;1.93;;;1.83;;
8359;SDS011;4217;48.762;11.428;2022-09-14T23:07:56;2.17;;;2.07;;
8359;SDS011;4217;48.762;11.428;2022-09-14T23:17:57;2.30;;;2.20;;
8359;SDS011;4217;48.762;11.428;2022-09-14T23:27:59;2.63;;;2.53;;
8359;SDS011;4217;48.762;11.428;2022-09-14T23:38:02;2.80;;;2.60;;
8359;SDS011;4217;48.762;11.428;2022-09-14T23:48:04;3.43;;;3.20;;
8359;SDS011;4217;48.762;11.428;2022-09-14T23:58:05;2.40;;;2.20;;
